sensor_id;sensor_type;location;lat;lon;timestamp;pressure;altitude;pressure_sealevel;temperature;humidity
71778;BME280;59609;52.430;4.668;2022-09-25T00:00:45;101843.78;;;9.36;100.00
71778;BME280;59609;52.430;4.668;2022-09-25T00:03:12;101859.34;;;9.47;100.00
71778;BME280;59609;52.430;4.668;2022-09-25T00:05:39;101862.44;;;9.53;100.00
71778;BME280;59609;52.430;4.668;2022-09-25T00:08:05;101861.00;;;9.59;100.00
71778;BME280;59609;52.430;4.668;2022-09-25T00:10:31;101864.25;;;9.64;100.00
71778;BME280;59609;52.430;4.668;2022-09-25T00:12:57;101851.34;;;9.64;100.00
71778;BME280;59609;52.430;4.668;2022-09-25T00:15:23;101861.53;;;9.73;100.00
71778;BME280;59609;52.430;4.668;2022-09-25T00:17:49;101864.91;;;9.77;100.00
71778;BME280;59609;52.430;4.668;2022-09-25T00:20:15;101864.63;;;9.80;100.00
71778;BME280;59609;52.430;4.668;2022-09-25T00:22:41;101861.88;;;9.80;100.00
71778;BME280;59609;52.430;4.668;2022-09-25T00:25:11;101853.88;;;9.77;100.00
71778;BME280;59609;52.430;4.668;2022-09-25T00:27:40;101861.38;;;9.75;100.00
71778;BME280;59609;52.430;4.668;2022-09-25T00:30:06;101858.31;;;9.68;100.00
71778;BME280;59609;52.430;4.668;2022-09-25T00:32:32;101861.63;;;9.62;100.00
71778;BME280;59609;52.430;4.668;2022-09-25T00:34:57;101859.41;;;9.56;100.00
71778;BME280;59609;52.430;4.668;2022-09-25T00:37:23;101861.41;;;9.54;100.00
71778;BME280;59609;52.430;4.668;2022-09-25T00:39:48;101864.84;;;9.47;100.00
71778;BME280;59609;52.430;4.668;2022-09-25T00:42:18;101867.13;;;9.42;100.00
71778;BME280;59609;52.430;4.668;2022-09-25T00:50:02;101860.63;;;9.22;100.00
71778;BME280;59609;52.430;4.668;2022-09-25T00:52:29;101863.38;;;9.22;100.00
71778;BME280;59609;52.430;4.668;2022-09-25T00:54:59;101863.63;;;9.19;100.00
71778;BME280;59609;52.430;4.668;2022-09-25T00:57:29;101862.03;;;9.16;100.00
71778;BME280;59609;52.430;4.668;2022-09-25T00:59:59;101866.50;;;9.17;100.00
71778;BME280;59609;52.430;4.668;2022-09-25T01:02:29;101855.03;;;9.12;100.00
71778;BME280;59609;52.430;4.668;2022-09-25T01:04:59;101857.91;;;9.11;100.00
71778;BME280;59609;52.430;4.668;2022-09-25T01:07:25;101862.81;;;9.07;100.00
71778;BME280;59609;52.430;4.668;2022-09-25T01:09:51;101855.59;;;9.06;100.00
71778;BME280;59609;52.430;4.668;2022-09-25T01:12:16;101854.97;;;9.03;100.00
71778;BME280;59609;52.430;4.668;2022-09-25T01:14:42;101853.38;;;9.00;100.00
71778;BME280;59609;52.430;4.668;2022-09-25T01:17:21;101836.38;;;8.95;100.00
71778;BME280;59609;52.430;4.668;2022-09-25T01:31:18;101846.91;;;8.90;100.00
71778;BME280;59609;52.430;4.668;2022-09-25T01:33:50;101862.72;;;8.98;100.00
71778;BME280;59609;52.430;4.668;2022-09-25T01:36:28;101857.38;;;8.96;100.00
71778;BME280;59609;52.430;4.668;2022-09-25T01:39:19;101856.22;;;8.99;100.00
71778;BME280;59609;52.430;4.668;2022-09-25T01:42:05;101854.47;;;8.98;100.00
71778;BME280;59609;52.430;4.668;2022-09-25T01:44:37;101854.22;;;9.01;100.00
71778;BME280;59609;52.430;4.668;2022-09-25T01:47:09;101847.88;;;9.00;100.00
71778;BME280;59609;52.430;4.668;2022-09-25T01:49:58;101854.47;;;8.98;100.00
71778;BME280;59609;52.430;4.668;2022-09-25T01:52:29;101850.28;;;8.94;100.00
71778;BME280;59609;52.430;4.668;2022-09-25T01:55:07;101843.47;;;8.98;100.00
71778;BME280;59609;52.430;4.668;2022-09-25T01:57:39;101847.13;;;8.98;100.00
71778;BME280;59609;52.430;4.668;2022-09-25T02:00:09;101845.72;;;9.04;100.00
71778;BME280;59609;52.430;4.668;2022-09-25T02:02:39;101848.66;;;9.12;100.00
71778;BME280;59609;52.430;4.668;2022-09-25T02:05:14;101844.00;;;9.23;100.00
71778;BME280;59609;52.430;4.668;2022-09-25T02:07:49;101849.00;;;9.39;100.00
71778;BME280;59609;52.430;4.668;2022-09-25T02:10:21;101847.47;;;9.46;100.00
71778;BME280;59609;52.430;4.668;2022-09-25T02:12:50;101846.94;;;9.52;100.00
71778;BME280;59609;52.430;4.668;2022-09-25T02:15:25;101844.38;;;9.60;100.00
71778;BME280;59609;52.430;4.668;2022-09-25T02:17:59;101848.31;;;9.67;100.00
71778;BME280;59609;52.430;4.668;2022-09-25T02:24:04;101853.66;;;9.90;100.00
71778;BME280;59609;52.430;4.668;2022-09-25T02:26:34;101842.19;;;9.94;100.00
71778;BME280;59609;52.430;4.668;2022-09-25T02:29:00;101854.28;;;10.03;100.00
71778;BME280;59609;52.430;4.668;2022-09-25T02:31:34;101850.09;;;10.08;100.00
71778;BME280;59609;52.430;4.668;2022-09-25T02:34:01;101847.06;;;10.11;100.00
71778;BME280;59609;52.430;4.668;2022-09-25T02:36:30;101845.06;;;10.13;100.00
71778;BME280;59609;52.430;4.668;2022-09-25T02:38:58;101839.31;;;10.16;100.00
71778;BME280;59609;52.430;4.668;2022-09-25T02:46:22;101840.63;;;10.22;100.00
71778;BME280;59609;52.430;4.668;2022-09-25T02:49:07;101844.97;;;10.24;100.00
71778;BME280;59609;52.430;4.668;2022-09-25T02:51:43;101841.38;;;10.24;100.00
71778;BME280;59609;52.430;4.668;2022-09-25T02:54:15;101833.09;;;10.24;100.00
71778;BME280;59609;52.430;4.668;2022-09-25T02:56:55;101832.66;;;10.28;100.00
71778;BME280;59609;52.430;4.668;2022-09-25T02:59:29;101833.25;;;10.32;100.00
71778;BME280;59609;52.430;4.668;2022-09-25T03:01:57;101841.50;;;10.32;100.00
71778;BME280;59609;52.430;4.668;2022-09-25T03:04:24;101840.22;;;10.36;100.00
71778;BME280;59609;52.430;4.668;2022-09-25T03:06:51;101843.69;;;10.38;100.00
71778;BME280;59609;52.430;4.668;2022-09-25T03:09:17;101848.91;;;10.41;100.00
71778;BME280;59609;52.430;4.668;2022-09-25T03:11:45;101845.75;;;10.46;100.00
71778;BME280;59609;52.430;4.668;2022-09-25T03:14:11;101846.47;;;10.48;100.00
71778;BME280;59609;52.430;4.668;2022-09-25T03:16:46;101849.81;;;10.51;100.00
71778;BME280;59609;52.430;4.668;2022-09-25T03:19:12;101841.25;;;10.54;100.00
71778;BME280;59609;52.430;4.668;2022-09-25T03:21:38;101843.00;;;10.55;100.00
71778;BME280;59609;52.430;4.668;2022-09-25T03:24:03;101836.03;;;10.51;100.00
71778;BME280;59609;52.430;4.668;2022-09-25T03:26:29;101842.28;;;10.53;100.00
71778;BME280;59609;52.430;4.668;2022-09-25T03:28:55;101827.78;;;10.51;100.00
71778;BME280;59609;52.430;4.668;2022-09-25T03:31:20;101832.69;;;10.48;100.00
71778;BME280;59609;52.430;4.668;2022-09-25T03:33:46;101839.25;;;10.47;100.00
71778;BME280;59609;52.430;4.668;2022-09-25T03:36:21;101840.53;;;10.43;100.00
71778;BME280;59609;52.430;4.668;2022-09-25T03:38:52;101843.69;;;10.38;100.00
71778;BME280;59609;52.430;4.668;2022-09-25T03:41:22;101846.31;;;10.40;100.00
71778;BME280;59609;52.430;4.668;2022-09-25T03:43:49;101844.84;;;10.36;100.00
71778;BME280;59609;52.430;4.668;2022-09-25T03:46:17;101837.59;;;10.34;100.00
71778;BME280;59609;52.430;4.668;2022-09-25T03:48:43;101833.25;;;10.32;100.00
71778;BME280;59609;52.430;4.668;2022-09-25T03:51:08;101840.50;;;10.33;100.00
71778;BME280;59609;52.430;4.668;2022-09-25T03:53:35;101834.13;;;10.32;100.00
71778;BME280;59609;52.430;4.668;2022-09-25T03:56:10;101825.16;;;10.30;100.00
71778;BME280;59609;52.430;4.668;2022-09-25T03:58:36;101831.78;;;10.28;100.00
71778;BME280;59609;52.430;4.668;2022-09-25T04:01:02;101828.44;;;10.24;100.00
71778;BME280;59609;52.430;4.668;2022-09-25T04:03:29;101830.06;;;10.27;100.00
71778;BME280;59609;52.430;4.668;2022-09-25T04:05:56;101830.19;;;10.25;100.00
71778;BME280;59609;52.430;4.668;2022-09-25T04:08:23;101815.22;;;10.18;100.00
71778;BME280;59609;52.430;4.668;2022-09-25T04:10:52;101823.97;;;10.23;100.00
71778;BME280;59609;52.430;4.668;2022-09-25T04:13:23;101826.84;;;10.22;100.00
71778;BME280;59609;52.430;4.668;2022-09-25T04:15:48;101826.56;;;10.25;100.00
71778;BME280;59609;52.430;4.668;2022-09-25T04:18:14;101819.75;;;10.29;100.00
71778;BME280;59609;52.430;4.668;2022-09-25T04:20:39;101822.22;;;10.32;100.00
71778;BME280;59609;52.430;4.668;2022-09-25T04:23:05;101814.72;;;10.34;100.00
71778;BME280;59609;52.430;4.668;2022-09-25T04:25:31;101819.94;;;10.37;100.00
71778;BME280;59609;52.430;4.668;2022-09-25T04:27:56;101811.50;;;10.39;100.00
71778;BME280;59609;52.430;4.668;2022-09-25T04:30:26;101801.66;;;10.36;100.00
71778;BME280;59609;52.430;4.668;2022-09-25T04:32:52;101797.63;;;10.40;100.00
71778;BME280;59609;52.430;4.668;2022-09-25T04:35:36;101818.19;;;10.46;100.00
71778;BME280;59609;52.430;4.668;2022-09-25T04:38:02;101808.34;;;10.43;100.00
71778;BME280;59609;52.430;4.668;2022-09-25T04:40:28;101816.03;;;10.49;100.00
71778;BME280;59609;52.430;4.668;2022-09-25T04:42:58;101810.66;;;10.48;100.00
71778;BME280;59609;52.430;4.668;2022-09-25T04:45:24;101813.28;;;10.49;100.00
71778;BME280;59609;52.430;4.668;2022-09-25T04:47:52;101808.47;;;10.51;100.00
71778;BME280;59609;52.430;4.668;2022-09-25T04:50:18;101811.13;;;10.53;100.00
71778;BME280;59609;52.430;4.668;2022-09-25T04:52:43;101813.72;;;10.54;100.00
71778;BME280;59609;52.430;4.668;2022-09-25T04:55:09;101814.59;;;10.55;100.00
71778;BME280;59609;52.430;4.668;2022-09-25T04:57:34;101809.22;;;10.53;100.00
71778;BME280;59609;52.430;4.668;2022-09-25T05:00:00;101815.63;;;10.54;100.00
71778;BME280;59609;52.430;4.668;2022-09-25T05:02:26;101806.75;;;10.50;100.00
71778;BME280;59609;52.430;4.668;2022-09-25T05:04:52;101810.53;;;10.49;100.00
71778;BME280;59609;52.430;4.668;2022-09-25T05:07:18;101815.31;;;10.47;100.00
71778;BME280;59609;52.430;4.668;2022-09-25T05:09:43;101808.94;;;10.47;100.00
71778;BME280;59609;52.430;4.668;2022-09-25T05:12:08;101819.50;;;10.51;100.00
71778;BME280;59609;52.430;4.668;2022-09-25T05:14:34;101824.00;;;10.52;100.00
71778;BME280;59609;52.430;4.668;2022-09-25T05:16:59;101829.53;;;10.52;100.00
71778;BME280;59609;52.430;4.668;2022-09-25T05:19:25;101815.03;;;10.50;100.00
71778;BME280;59609;52.430;4.668;2022-09-25T05:21:52;101818.19;;;10.46;100.00
71778;BME280;59609;52.430;4.668;2022-09-25T05:24:18;101810.34;;;10.41;100.00
71778;BME280;59609;52.430;4.668;2022-09-25T05:26:43;101810.63;;;10.38;100.00
71778;BME280;59609;52.430;4.668;2022-09-25T05:29:08;101818.19;;;10.36;100.00
71778;BME280;59609;52.430;4.668;2022-09-25T05:31:35;101816.59;;;10.33;100.00
71778;BME280;59609;52.430;4.668;2022-09-25T05:34:01;101810.50;;;10.30;100.00
71778;BME280;59609;52.430;4.668;2022-09-25T05:36:26;101816.88;;;10.30;100.00
71778;BME280;59609;52.430;4.668;2022-09-25T05:38:53;101822.53;;;10.29;100.00
71778;BME280;59609;52.430;4.668;2022-09-25T05:41:18;101824.84;;;10.24;100.00
71778;BME280;59609;52.430;4.668;2022-09-25T05:43:45;101819.88;;;10.18;100.00
71778;BME280;59609;52.430;4.668;2022-09-25T05:46:14;101819.28;;;10.14;100.00
71778;BME280;59609;52.430;4.668;2022-09-25T05:48:40;101821.91;;;10.16;100.00
71778;BME280;59609;52.430;4.668;2022-09-25T05:51:06;101822.63;;;10.18;100.00
71778;BME280;59609;52.430;4.668;2022-09-25T05:53:32;101824.25;;;10.20;100.00
71778;BME280;59609;52.430;4.668;2022-09-25T05:55:59;101824.25;;;10.20;100.00
71778;BME280;59609;52.430;4.668;2022-09-25T05:58:27;101828.31;;;10.26;100.00
71778;BME280;59609;52.430;4.668;2022-09-25T06:00:52;101826.75;;;10.43;100.00
71778;BME280;59609;52.430;4.668;2022-09-25T06:03:19;101811.56;;;10.87;100.00
71778;BME280;59609;52.430;4.668;2022-09-25T06:05:45;101818.41;;;11.67;100.00
71778;BME280;59609;52.430;4.668;2022-09-25T06:08:11;101813.53;;;11.42;100.00
71778;BME280;59609;52.430;4.668;2022-09-25T06:10:37;101811.03;;;11.49;100.00
71778;BME280;59609;52.430;4.668;2022-09-25T06:13:03;101814.16;;;11.26;100.00
71778;BME280;59609;52.430;4.668;2022-09-25T06:15:36;101807.06;;;11.05;100.00
71778;BME280;59609;52.430;4.668;2022-09-25T06:18:06;101809.81;;;10.85;100.00
71778;BME280;59609;52.430;4.668;2022-09-25T06:20:32;101804.72;;;10.71;100.00
71778;BME280;59609;52.430;4.668;2022-09-25T06:22:58;101813.88;;;10.62;100.00
71778;BME280;59609;52.430;4.668;2022-09-25T06:25:28;101815.47;;;10.55;100.00
71778;BME280;59609;52.430;4.668;2022-09-25T06:27:55;101815.75;;;10.52;100.00
71778;BME280;59609;52.430;4.668;2022-09-25T06:30:24;101825.03;;;10.51;100.00
71778;BME280;59609;52.430;4.668;2022-09-25T06:32:56;101831.41;;;10.61;100.00
71778;BME280;59609;52.430;4.668;2022-09-25T06:35:22;101829.41;;;10.73;100.00
71778;BME280;59609;52.430;4.668;2022-09-25T06:37:47;101822.16;;;10.81;100.00
71778;BME280;59609;52.430;4.668;2022-09-25T06:40:13;101832.91;;;11.13;100.00
71778;BME280;59609;52.430;4.668;2022-09-25T06:42:38;101830.81;;;11.44;100.00
71778;BME280;59609;52.430;4.668;2022-09-25T06:45:04;101838.31;;;11.71;100.00
71778;BME280;59609;52.430;4.668;2022-09-25T06:47:29;101841.47;;;11.85;100.00
71778;BME280;59609;52.430;4.668;2022-09-25T06:49:54;101852.09;;;11.90;100.00
71778;BME280;59609;52.430;4.668;2022-09-25T06:52:20;101853.53;;;11.94;100.00
71778;BME280;59609;52.430;4.668;2022-09-25T06:54:45;101842.53;;;11.75;100.00
71778;BME280;59609;52.430;4.668;2022-09-25T06:57:11;101854.13;;;11.78;100.00
71778;BME280;59609;52.430;4.668;2022-09-25T06:59:37;101846.59;;;11.71;100.00
71778;BME280;59609;52.430;4.668;2022-09-25T07:02:02;101837.47;;;11.70;100.00
71778;BME280;59609;52.430;4.668;2022-09-25T07:04:46;101824.38;;;11.63;100.00
71778;BME280;59609;52.430;4.668;2022-09-25T07:07:15;101839.47;;;11.78;100.00
71778;BME280;59609;52.430;4.668;2022-09-25T07:09:44;101836.13;;;11.84;100.00
71778;BME280;59609;52.430;4.668;2022-09-25T07:12:11;101825.63;;;11.87;100.00
71778;BME280;59609;52.430;4.668;2022-09-25T07:14:36;101822.16;;;11.85;100.00
71778;BME280;59609;52.430;4.668;2022-09-25T07:17:03;101824.41;;;12.00;100.00
71778;BME280;59609;52.430;4.668;2022-09-25T07:19:28;101825.59;;;11.97;100.00
71778;BME280;59609;52.430;4.668;2022-09-25T07:21:53;101832.22;;;12.14;100.00
71778;BME280;59609;52.430;4.668;2022-09-25T07:24:19;101824.50;;;12.17;100.00
71778;BME280;59609;52.430;4.668;2022-09-25T07:26:46;101829.53;;;12.22;100.00
71778;BME280;59609;52.430;4.668;2022-09-25T07:29:12;101834.00;;;12.32;100.00
71778;BME280;59609;52.430;4.668;2022-09-25T07:31:37;101821.44;;;12.38;100.00
71778;BME280;59609;52.430;4.668;2022-09-25T07:34:03;101814.59;;;12.42;100.00
71778;BME280;59609;52.430;4.668;2022-09-25T07:36:33;101819.91;;;12.53;100.00
71778;BME280;59609;52.430;4.668;2022-09-25T07:38:58;101818.25;;;12.60;100.00
71778;BME280;59609;52.430;4.668;2022-09-25T07:41:24;101821.25;;;12.67;100.00
71778;BME280;59609;52.430;4.668;2022-09-25T07:43:53;101820.47;;;12.74;100.00
71778;BME280;59609;52.430;4.668;2022-09-25T07:46:21;101820.31;;;12.76;100.00
71778;BME280;59609;52.430;4.668;2022-09-25T07:48:48;101827.03;;;12.73;100.00
71778;BME280;59609;52.430;4.668;2022-09-25T07:51:14;101815.66;;;12.76;100.00
71778;BME280;59609;52.430;4.668;2022-09-25T07:53:39;101824.34;;;12.81;100.00
71778;BME280;59609;52.430;4.668;2022-09-25T07:56:05;101822.22;;;12.75;100.00
71778;BME280;59609;52.430;4.668;2022-09-25T07:58:31;101820.69;;;12.81;100.00
71778;BME280;59609;52.430;4.668;2022-09-25T08:01:01;101830.34;;;12.95;100.00
71778;BME280;59609;52.430;4.668;2022-09-25T08:03:27;101830.13;;;13.06;99.96
71778;BME280;59609;52.430;4.668;2022-09-25T08:06:11;101823.16;;;13.37;99.47
71778;BME280;59609;52.430;4.668;2022-09-25T08:08:42;101833.59;;;13.43;97.91
71778;BME280;59609;52.430;4.668;2022-09-25T08:11:10;101830.44;;;13.64;98.28
71778;BME280;59609;52.430;4.668;2022-09-25T08:13:36;101825.72;;;14.16;94.52
71778;BME280;59609;52.430;4.668;2022-09-25T08:16:08;101832.53;;;14.63;94.43
71778;BME280;59609;52.430;4.668;2022-09-25T08:18:36;101832.59;;;15.12;91.66
71778;BME280;59609;52.430;4.668;2022-09-25T08:21:03;101821.50;;;15.36;87.86
71778;BME280;59609;52.430;4.668;2022-09-25T08:23:29;101819.59;;;15.28;87.36
71778;BME280;59609;52.430;4.668;2022-09-25T08:25:55;101824.28;;;15.04;87.03
71778;BME280;59609;52.430;4.668;2022-09-25T08:28:21;101830.34;;;15.31;86.42
71778;BME280;59609;52.430;4.668;2022-09-25T08:30:47;101824.97;;;15.38;87.12
71778;BME280;59609;52.430;4.668;2022-09-25T08:33:12;101815.97;;;15.44;82.69
71778;BME280;59609;52.430;4.668;2022-09-25T08:35:38;101825.69;;;15.48;84.52
71778;BME280;59609;52.430;4.668;2022-09-25T08:38:06;101816.97;;;15.83;84.07
71778;BME280;59609;52.430;4.668;2022-09-25T08:40:32;101817.94;;;16.07;81.69
71778;BME280;59609;52.430;4.668;2022-09-25T08:42:59;101820.16;;;16.11;80.19
71778;BME280;59609;52.430;4.668;2022-09-25T08:45:27;101820.78;;;16.37;78.94
71778;BME280;59609;52.430;4.668;2022-09-25T08:48:31;101819.84;;;16.45;77.38
71778;BME280;59609;52.430;4.668;2022-09-25T08:51:17;101823.69;;;16.44;74.69
71778;BME280;59609;52.430;4.668;2022-09-25T08:53:42;101820.41;;;16.40;73.85
71778;BME280;59609;52.430;4.668;2022-09-25T08:56:11;101823.94;;;16.26;73.65
71778;BME280;59609;52.430;4.668;2022-09-25T09:01:27;101813.13;;;16.31;71.39
71778;BME280;59609;52.430;4.668;2022-09-25T09:04:02;101811.50;;;16.45;69.17
71778;BME280;59609;52.430;4.668;2022-09-25T09:06:32;101811.69;;;16.43;71.42
71778;BME280;59609;52.430;4.668;2022-09-25T09:09:10;101808.72;;;16.45;70.22
71778;BME280;59609;52.430;4.668;2022-09-25T09:11:52;101818.78;;;16.54;71.65
71778;BME280;59609;52.430;4.668;2022-09-25T09:14:23;101813.78;;;16.80;69.77
71778;BME280;59609;52.430;4.668;2022-09-25T09:17:11;101812.78;;;16.96;69.54
71778;BME280;59609;52.430;4.668;2022-09-25T09:19:45;101809.13;;;16.95;70.15
71778;BME280;59609;52.430;4.668;2022-09-25T09:22:12;101814.94;;;17.09;69.53
71778;BME280;59609;52.430;4.668;2022-09-25T09:27:21;101811.38;;;17.23;69.69
71778;BME280;59609;52.430;4.668;2022-09-25T09:33:01;101818.53;;;17.63;68.44
71778;BME280;59609;52.430;4.668;2022-09-25T09:38:31;101808.59;;;17.97;65.60
71778;BME280;59609;52.430;4.668;2022-09-25T09:41:44;101816.81;;;17.76;62.49
71778;BME280;59609;52.430;4.668;2022-09-25T09:49:36;101811.94;;;18.08;61.64
71778;BME280;59609;52.430;4.668;2022-09-25T09:52:21;101805.88;;;18.33;60.80
71778;BME280;59609;52.430;4.668;2022-09-25T09:54:53;101808.56;;;18.56;60.11
71778;BME280;59609;52.430;4.668;2022-09-25T09:57:26;101804.44;;;18.37;63.15
71778;BME280;59609;52.430;4.668;2022-09-25T10:00:05;101802.69;;;17.78;61.20
71778;BME280;59609;52.430;4.668;2022-09-25T10:05:07;101800.66;;;17.57;61.39
71778;BME280;59609;52.430;4.668;2022-09-25T10:07:35;101789.34;;;18.02;59.42
71778;BME280;59609;52.430;4.668;2022-09-25T10:10:11;101804.47;;;17.56;60.42
71778;BME280;59609;52.430;4.668;2022-09-25T10:12:38;101802.09;;;17.08;62.78
71778;BME280;59609;52.430;4.668;2022-09-25T10:15:17;101801.00;;;16.63;65.27
71778;BME280;59609;52.430;4.668;2022-09-25T10:17:43;101801.66;;;16.34;66.22
71778;BME280;59609;52.430;4.668;2022-09-25T10:20:21;101797.31;;;16.32;66.56
71778;BME280;59609;52.430;4.668;2022-09-25T10:22:51;101794.84;;;15.98;66.85
71778;BME280;59609;52.430;4.668;2022-09-25T10:25:34;101793.94;;;16.44;68.75
71778;BME280;59609;52.430;4.668;2022-09-25T10:28:20;101791.00;;;17.22;63.75
71778;BME280;59609;52.430;4.668;2022-09-25T10:30:46;101784.72;;;17.43;61.39
71778;BME280;59609;52.430;4.668;2022-09-25T10:33:21;101776.81;;;17.98;60.77
71778;BME280;59609;52.430;4.668;2022-09-25T10:35:48;101775.72;;;18.43;58.41
71778;BME280;59609;52.430;4.668;2022-09-25T10:38:38;101768.88;;;18.46;56.91
71778;BME280;59609;52.430;4.668;2022-09-25T10:44:00;101772.97;;;19.43;56.30
71778;BME280;59609;52.430;4.668;2022-09-25T10:46:30;101771.81;;;19.59;56.68
71778;BME280;59609;52.430;4.668;2022-09-25T10:52:08;101767.38;;;18.29;55.42
71778;BME280;59609;52.430;4.668;2022-09-25T10:54:35;101771.63;;;17.95;59.59
71778;BME280;59609;52.430;4.668;2022-09-25T10:57:01;101767.50;;;17.91;61.16
71778;BME280;59609;52.430;4.668;2022-09-25T10:59:38;101761.28;;;17.37;60.05
71778;BME280;59609;52.430;4.668;2022-09-25T11:02:12;101766.19;;;17.50;58.63
71778;BME280;59609;52.430;4.668;2022-09-25T11:04:44;101763.28;;;17.95;58.56
71778;BME280;59609;52.430;4.668;2022-09-25T11:07:16;101767.75;;;18.26;60.65
71778;BME280;59609;52.430;4.668;2022-09-25T11:09:46;101771.72;;;18.02;64.83
71778;BME280;59609;52.430;4.668;2022-09-25T11:12:12;101784.28;;;16.94;71.92
71778;BME280;59609;52.430;4.668;2022-09-25T11:14:43;101792.03;;;16.14;77.30
71778;BME280;59609;52.430;4.668;2022-09-25T11:17:48;101801.00;;;14.88;85.64
71778;BME280;59609;52.430;4.668;2022-09-25T11:23:34;101794.59;;;14.30;90.20
71778;BME280;59609;52.430;4.668;2022-09-25T11:25:38;101800.28;;;14.28;87.68
71778;BME280;59609;52.430;4.668;2022-09-25T11:28:32;101801.97;;;14.47;92.09
71778;BME280;59609;52.430;4.668;2022-09-25T11:31:10;101791.56;;;14.49;89.33
71778;BME280;59609;52.430;4.668;2022-09-25T11:33:47;101796.63;;;14.54;89.14
71778;BME280;59609;52.430;4.668;2022-09-25T11:36:38;101802.19;;;14.70;89.35
71778;BME280;59609;52.430;4.668;2022-09-25T11:39:31;101789.91;;;14.80;89.21
71778;BME280;59609;52.430;4.668;2022-09-25T11:45:19;101781.25;;;15.00;89.22
71778;BME280;59609;52.430;4.668;2022-09-25T11:47:53;101779.84;;;15.20;88.84
71778;BME280;59609;52.430;4.668;2022-09-25T11:50:27;101772.91;;;15.16;87.70
71778;BME280;59609;52.430;4.668;2022-09-25T11:53:29;101776.72;;;15.55;86.42
71778;BME280;59609;52.430;4.668;2022-09-25T11:58:59;101760.28;;;16.01;83.94
71778;BME280;59609;52.430;4.668;2022-09-25T12:01:43;101755.81;;;16.53;83.47
71778;BME280;59609;52.430;4.668;2022-09-25T12:04:19;101754.53;;;16.94;80.86
71778;BME280;59609;52.430;4.668;2022-09-25T12:15:23;101738.63;;;16.49;81.87
71778;BME280;59609;52.430;4.668;2022-09-25T12:18:12;101736.50;;;16.29;82.73
71778;BME280;59609;52.430;4.668;2022-09-25T12:20:56;101731.25;;;16.87;83.20
71778;BME280;59609;52.430;4.668;2022-09-25T12:31:49;101715.13;;;16.52;82.52
71778;BME280;59609;52.430;4.668;2022-09-25T12:37:37;101714.72;;;16.02;83.57
71778;BME280;59609;52.430;4.668;2022-09-25T12:40:41;101706.63;;;16.99;73.21
71778;BME280;59609;52.430;4.668;2022-09-25T12:43:13;101708.09;;;17.62;67.93
71778;BME280;59609;52.430;4.668;2022-09-25T12:49:10;101694.50;;;18.17;66.04
71778;BME280;59609;52.430;4.668;2022-09-25T12:51:48;101689.94;;;17.80;63.82
71778;BME280;59609;52.430;4.668;2022-09-25T12:59:55;101675.13;;;17.94;64.79
71778;BME280;59609;52.430;4.668;2022-09-25T13:02:44;101663.72;;;17.60;65.29
71778;BME280;59609;52.430;4.668;2022-09-25T13:05:17;101679.41;;;17.38;65.76
71778;BME280;59609;52.430;4.668;2022-09-25T13:07:50;101679.47;;;17.16;69.03
71778;BME280;59609;52.430;4.668;2022-09-25T13:10:32;101682.47;;;17.29;72.43
71778;BME280;59609;52.430;4.668;2022-09-25T13:13:03;101670.50;;;17.43;69.70
71778;BME280;59609;52.430;4.668;2022-09-25T13:15:34;101675.91;;;17.74;65.65
71778;BME280;59609;52.430;4.668;2022-09-25T13:18:00;101669.06;;;18.48;62.86
71778;BME280;59609;52.430;4.668;2022-09-25T13:23:12;101654.41;;;19.65;60.55
71778;BME280;59609;52.430;4.668;2022-09-25T13:25:43;101648.41;;;20.16;61.77
71778;BME280;59609;52.430;4.668;2022-09-25T13:28:26;101655.00;;;20.49;60.05
71778;BME280;59609;52.430;4.668;2022-09-25T13:33:26;101659.50;;;20.37;58.81
71778;BME280;59609;52.430;4.668;2022-09-25T13:36:06;101654.53;;;20.39;58.95
71778;BME280;59609;52.430;4.668;2022-09-25T13:38:38;101658.44;;;20.38;58.08
71778;BME280;59609;52.430;4.668;2022-09-25T13:41:22;101658.81;;;19.81;58.42
71778;BME280;59609;52.430;4.668;2022-09-25T13:50:21;101668.28;;;17.24;71.65
71778;BME280;59609;52.430;4.668;2022-09-25T14:00:50;101666.97;;;16.97;80.74
71778;BME280;59609;52.430;4.668;2022-09-25T14:06:02;101654.66;;;16.91;79.21
71778;BME280;59609;52.430;4.668;2022-09-25T14:08:31;101646.31;;;16.91;76.95
71778;BME280;59609;52.430;4.668;2022-09-25T14:11:01;101633.78;;;17.10;75.61
71778;BME280;59609;52.430;4.668;2022-09-25T14:13:29;101642.53;;;17.51;77.03
71778;BME280;59609;52.430;4.668;2022-09-25T14:15:58;101637.19;;;17.64;72.73
71778;BME280;59609;52.430;4.668;2022-09-25T14:18:39;101633.69;;;17.77;71.57
71778;BME280;59609;52.430;4.668;2022-09-25T14:21:06;101626.22;;;17.77;66.06
71778;BME280;59609;52.430;4.668;2022-09-25T14:23:47;101624.66;;;17.45;62.73
71778;BME280;59609;52.430;4.668;2022-09-25T14:26:20;101624.81;;;17.15;64.78
71778;BME280;59609;52.430;4.668;2022-09-25T14:28:47;101620.59;;;16.89;62.54
71778;BME280;59609;52.430;4.668;2022-09-25T14:39:27;101606.31;;;17.80;61.77
71778;BME280;59609;52.430;4.668;2022-09-25T14:45:20;101607.16;;;17.81;58.23
71778;BME280;59609;52.430;4.668;2022-09-25T14:47:39;101611.34;;;17.91;58.12
71778;BME280;59609;52.430;4.668;2022-09-25T14:52:45;101601.75;;;18.15;57.81
71778;BME280;59609;52.430;4.668;2022-09-25T14:55:15;101611.34;;;17.91;58.93
71778;BME280;59609;52.430;4.668;2022-09-25T14:57:46;101601.59;;;17.81;57.26
71778;BME280;59609;52.430;4.668;2022-09-25T15:00:18;101604.88;;;17.70;58.71
71778;BME280;59609;52.430;4.668;2022-09-25T15:02:48;101599.53;;;17.89;58.86
71778;BME280;59609;52.430;4.668;2022-09-25T15:07:51;101607.94;;;18.11;59.78
71778;BME280;59609;52.430;4.668;2022-09-25T15:10:36;101592.63;;;18.21;60.93